MUC | München Airways

 METAR UND TAF INFORMATION

METAR FOR LPMA
ADDS - METARS form results

(0839 UTC 19 March 2019)
Data provider http://aviationweather.gov/metar/data/
 
METAR text: LPMA 190830Z 02016KT 9999 BKN016 SCT030 16/08 Q1024
Conditions at: LPMA (FUNCHAL/MADEIRA , PT) observed 0830 UTC 19 March 2019
Temperature: 16.0°C (61°F)
Dewpoint: 8.0°C (46°F) [RH = 59%]
Pressure (altimeter): 30.24 inches Hg (1024.0 mb)
Winds: from the NNE (20 degrees) at 18 MPH (16 knots; 8.2 m/s)
Visibility: 6 or more miles (10+ km)
Ceiling: 1600 feet AGL
Clouds: broken clouds at 1600 feet AGL
scattered clouds at 3000 feet AGL
Weather: no significant weather observed at this time

METAR text: LPMA 190800Z 02015KT 9999 BKN016 SCT030 16/08 Q1024
Conditions at: LPMA (FUNCHAL/MADEIRA , PT) observed 0800 UTC 19 March 2019
Temperature: 16.0°C (61°F)
Dewpoint: 8.0°C (46°F) [RH = 59%]
Pressure (altimeter): 30.24 inches Hg (1024.0 mb)
Winds: from the NNE (20 degrees) at 17 MPH (15 knots; 7.7 m/s)
Visibility: 6 or more miles (10+ km)
Ceiling: 1600 feet AGL
Clouds: broken clouds at 1600 feet AGL
scattered clouds at 3000 feet AGL
Weather: no significant weather observed at this time

Forecast for: LPMA (FUNCHAL/MADEIRA , PT)
Text: TAF LPMA 190500Z 1906/2006 02015KT 9999 SCT015 BKN030
Forecast period: 0600 UTC 19 March 2019 to 0600 UTC 20 March 2019
Forecast type: FROM: standard forecast or significant change
Winds: from the NNE (20 degrees) at 17 MPH (15 knots; 7.7 m/s)
Visibility: 6 or more miles 10+ km)
Ceiling: 3000 feet AGL
Clouds: scattered clouds at 1500 feet AGL
broken clouds at 3000 feet AGL
Weather: no significant weather forecast for this period
Text: TEMPO 1906/1909 BKN015
Forecast period: 0600 to 0900 UTC 19 March 2019
Forecast type: TEMPORARY: The following changes expected for less than half the time period
Visibility: missing
Ceiling: 1500 feet AGL
Clouds: broken clouds at 1500 feet AGL
Weather: no significant weather forecast for this period
Text: TEMPO 1906/1924 02020G32KT
Forecast period: 0600 UTC 19 March 2019 to 0000 UTC 20 March 2019
Forecast type: TEMPORARY: The following changes expected for less than half the time period
Winds: from the NNE (20 degrees) at 23 MPH (20 knots; 10.3 m/s)
gusting to 37 MPH (32 knots; 16.5 m/s)
Visibility: missing
Ceiling: unknown
Clouds: missing
Weather: no significant weather forecast for this period

 FLUGHAFENKARTE

 RUNWAY INFORMATION
Runway 05 Runway length 9110 ft Runway width 148 ft
Runway elevation 147 ft Runway displaced threshold 480 ft Runway heading 45
Runway 23 Runway length 9110 ft Runway width 148 ft
Runway elevation 192 ft Runway displaced threshold 490 ft Runway heading 225

 AIRPORT FREQUENCIES
Type APP Name APP Frequency 119.2 MHZ
Type TWR Name TWR Frequency 118.35 MHZ

 AIRPORT NEAR NAVIGATION AIDS
Type VOR-DME Name Madeira Frequency 112200 KHZ
Type NDB Name Madeira Frequency 318 KHZ